KCXY

Capital City Airport

Harrisburg, Pennsylvania, USA
METAR KCXY 201616Z 10004KT 10SM BKN017 OVC040 23/17 A3013 RMK AO2 T02330167
Observed Flight Rules
Aug-20 @ 16:16 UTC (6 minutes ago) Marginal Visual Flight Rules
Wind Visibility Clouds
100° at 4 knots 10 miles
  • Broken at 1,700' AGL
  • Overcast at 4,000' AGL
Temperatures Readings
Current 23°C / 73°F
Dewpoint 17°C / 63°F
Humidity 69%
Altimeter 30.13" Hg
Pressure 1020 hPa
Elevation 106
METAR KCXY 201616Z 10004KT 10SM BKN017 OVC040 23/17 A3013 RMK AO2 T02330167
Observed Flight Rules
Aug-20 @ 16:16 UTC
(6 minutes ago)
MVFR
Wind Visibility
100° at 4 knots 10 miles
Clouds
  • Broken at 1,700' AGL
  • Overcast at 4,000' AGL
Temperature Dewpoint
23°C / 73°F 17°C / 63°F
Humidity Altimeter Pressure
69% 30.13" Hg 1020 hPa